sensor_id;sensor_type;location;lat;lon;timestamp;P1;durP1;ratioP1;P2;durP2;ratioP2
60851;SDS011;48553;50.766;2.900;2023-07-31T00:00:33;15.88;;;4.68;;
60851;SDS011;48553;50.766;2.900;2023-07-31T00:03:34;13.10;;;4.50;;
60851;SDS011;48553;50.766;2.900;2023-07-31T00:06:34;15.88;;;3.85;;
60851;SDS011;48553;50.766;2.900;2023-07-31T00:09:34;19.25;;;4.43;;
60851;SDS011;48553;50.766;2.900;2023-07-31T00:12:35;14.75;;;4.38;;
60851;SDS011;48553;50.766;2.900;2023-07-31T00:15:35;15.55;;;4.38;;
60851;SDS011;48553;50.766;2.900;2023-07-31T00:18:36;13.57;;;4.18;;
60851;SDS011;48553;50.766;2.900;2023-07-31T00:21:36;16.48;;;4.03;;
60851;SDS011;48553;50.766;2.900;2023-07-31T00:24:37;14.70;;;4.43;;
60851;SDS011;48553;50.766;2.900;2023-07-31T00:27:37;13.40;;;4.38;;
60851;SDS011;48553;50.766;2.900;2023-07-31T00:30:37;16.00;;;4.07;;
60851;SDS011;48553;50.766;2.900;2023-07-31T00:33:38;14.38;;;4.13;;
60851;SDS011;48553;50.766;2.900;2023-07-31T00:36:38;13.68;;;4.13;;
60851;SDS011;48553;50.766;2.900;2023-07-31T00:39:39;14.57;;;3.88;;
60851;SDS011;48553;50.766;2.900;2023-07-31T00:42:39;14.15;;;4.20;;
60851;SDS011;48553;50.766;2.900;2023-07-31T00:45:40;12.85;;;4.03;;
60851;SDS011;48553;50.766;2.900;2023-07-31T00:48:40;14.63;;;4.30;;
60851;SDS011;48553;50.766;2.900;2023-07-31T00:51:41;15.98;;;4.20;;
60851;SDS011;48553;50.766;2.900;2023-07-31T00:54:42;15.25;;;4.20;;
60851;SDS011;48553;50.766;2.900;2023-07-31T00:57:42;12.32;;;3.90;;
60851;SDS011;48553;50.766;2.900;2023-07-31T01:00:45;14.35;;;4.15;;
60851;SDS011;48553;50.766;2.900;2023-07-31T01:03:45;15.55;;;3.83;;
60851;SDS011;48553;50.766;2.900;2023-07-31T01:09:56;10.23;;;3.75;;
60851;SDS011;48553;50.766;2.900;2023-07-31T01:13:07;16.30;;;3.90;;
60851;SDS011;48553;50.766;2.900;2023-07-31T01:16:08;16.20;;;4.00;;
60851;SDS011;48553;50.766;2.900;2023-07-31T01:19:08;13.52;;;3.85;;
60851;SDS011;48553;50.766;2.900;2023-07-31T01:22:23;10.65;;;3.65;;
60851;SDS011;48553;50.766;2.900;2023-07-31T01:25:50;11.55;;;3.67;;
60851;SDS011;48553;50.766;2.900;2023-07-31T01:28:56;15.02;;;3.90;;
60851;SDS011;48553;50.766;2.900;2023-07-31T01:32:05;12.10;;;4.22;;
60851;SDS011;48553;50.766;2.900;2023-07-31T01:35:08;11.82;;;3.45;;
60851;SDS011;48553;50.766;2.900;2023-07-31T01:38:09;14.38;;;4.00;;
60851;SDS011;48553;50.766;2.900;2023-07-31T01:41:09;14.73;;;3.95;;
60851;SDS011;48553;50.766;2.900;2023-07-31T01:44:09;15.65;;;3.60;;
60851;SDS011;48553;50.766;2.900;2023-07-31T01:47:10;13.68;;;3.42;;
60851;SDS011;48553;50.766;2.900;2023-07-31T01:50:10;14.65;;;3.95;;
60851;SDS011;48553;50.766;2.900;2023-07-31T01:53:11;15.52;;;3.72;;
60851;SDS011;48553;50.766;2.900;2023-07-31T01:56:13;10.80;;;3.60;;
60851;SDS011;48553;50.766;2.900;2023-07-31T01:59:13;12.35;;;3.83;;
60851;SDS011;48553;50.766;2.900;2023-07-31T02:02:14;13.35;;;3.72;;
60851;SDS011;48553;50.766;2.900;2023-07-31T02:05:14;12.75;;;3.97;;
60851;SDS011;48553;50.766;2.900;2023-07-31T02:08:15;10.95;;;3.97;;
60851;SDS011;48553;50.766;2.900;2023-07-31T02:11:16;16.73;;;4.05;;
60851;SDS011;48553;50.766;2.900;2023-07-31T02:14:16;13.48;;;3.45;;
60851;SDS011;48553;50.766;2.900;2023-07-31T02:17:16;11.20;;;4.13;;
60851;SDS011;48553;50.766;2.900;2023-07-31T02:20:17;12.55;;;3.65;;
60851;SDS011;48553;50.766;2.900;2023-07-31T02:23:18;12.48;;;3.85;;
60851;SDS011;48553;50.766;2.900;2023-07-31T02:26:18;11.43;;;3.47;;
60851;SDS011;48553;50.766;2.900;2023-07-31T02:29:19;15.63;;;4.10;;
60851;SDS011;48553;50.766;2.900;2023-07-31T02:32:19;10.35;;;3.42;;
60851;SDS011;48553;50.766;2.900;2023-07-31T02:35:20;13.35;;;3.97;;
60851;SDS011;48553;50.766;2.900;2023-07-31T02:38:20;13.10;;;3.78;;
60851;SDS011;48553;50.766;2.900;2023-07-31T02:41:21;11.07;;;3.60;;
60851;SDS011;48553;50.766;2.900;2023-07-31T02:44:21;10.95;;;3.60;;
60851;SDS011;48553;50.766;2.900;2023-07-31T02:47:22;11.27;;;3.60;;
60851;SDS011;48553;50.766;2.900;2023-07-31T02:50:22;11.27;;;3.50;;
60851;SDS011;48553;50.766;2.900;2023-07-31T02:53:23;11.60;;;3.47;;
60851;SDS011;48553;50.766;2.900;2023-07-31T02:56:23;13.18;;;3.47;;
60851;SDS011;48553;50.766;2.900;2023-07-31T02:59:24;12.10;;;3.42;;
60851;SDS011;48553;50.766;2.900;2023-07-31T03:02:25;9.45;;;3.38;;
60851;SDS011;48553;50.766;2.900;2023-07-31T03:05:25;11.13;;;3.83;;
60851;SDS011;48553;50.766;2.900;2023-07-31T03:08:26;12.85;;;3.78;;
60851;SDS011;48553;50.766;2.900;2023-07-31T03:11:26;9.85;;;3.72;;
60851;SDS011;48553;50.766;2.900;2023-07-31T03:14:26;12.60;;;3.78;;
60851;SDS011;48553;50.766;2.900;2023-07-31T03:17:27;11.90;;;3.75;;
60851;SDS011;48553;50.766;2.900;2023-07-31T03:20:27;11.98;;;2.90;;
60851;SDS011;48553;50.766;2.900;2023-07-31T03:23:28;9.52;;;3.15;;
60851;SDS011;48553;50.766;2.900;2023-07-31T03:26:28;13.00;;;3.10;;
60851;SDS011;48553;50.766;2.900;2023-07-31T03:29:31;9.43;;;2.80;;
60851;SDS011;48553;50.766;2.900;2023-07-31T03:32:31;9.43;;;3.08;;
60851;SDS011;48553;50.766;2.900;2023-07-31T03:35:32;9.05;;;3.25;;
60851;SDS011;48553;50.766;2.900;2023-07-31T03:38:33;8.73;;;2.85;;
60851;SDS011;48553;50.766;2.900;2023-07-31T03:41:34;10.10;;;2.80;;
60851;SDS011;48553;50.766;2.900;2023-07-31T03:44:34;7.15;;;3.00;;
60851;SDS011;48553;50.766;2.900;2023-07-31T03:47:34;10.07;;;3.10;;
60851;SDS011;48553;50.766;2.900;2023-07-31T03:50:35;10.13;;;2.97;;
60851;SDS011;48553;50.766;2.900;2023-07-31T03:53:35;12.93;;;3.20;;
60851;SDS011;48553;50.766;2.900;2023-07-31T03:56:36;8.82;;;3.00;;
60851;SDS011;48553;50.766;2.900;2023-07-31T03:59:38;7.32;;;2.70;;
60851;SDS011;48553;50.766;2.900;2023-07-31T04:02:39;9.05;;;2.83;;
60851;SDS011;48553;50.766;2.900;2023-07-31T04:05:39;6.70;;;2.78;;
60851;SDS011;48553;50.766;2.900;2023-07-31T04:08:40;9.27;;;2.85;;
60851;SDS011;48553;50.766;2.900;2023-07-31T04:11:40;8.15;;;2.92;;
60851;SDS011;48553;50.766;2.900;2023-07-31T04:14:40;8.68;;;3.10;;
60851;SDS011;48553;50.766;2.900;2023-07-31T04:17:41;11.02;;;2.92;;
60851;SDS011;48553;50.766;2.900;2023-07-31T04:20:42;7.45;;;2.92;;
60851;SDS011;48553;50.766;2.900;2023-07-31T04:23:42;7.80;;;2.97;;
60851;SDS011;48553;50.766;2.900;2023-07-31T04:26:42;9.18;;;3.10;;
60851;SDS011;48553;50.766;2.900;2023-07-31T04:29:43;8.25;;;2.95;;
60851;SDS011;48553;50.766;2.900;2023-07-31T04:32:45;10.13;;;3.30;;
60851;SDS011;48553;50.766;2.900;2023-07-31T04:35:52;10.13;;;3.60;;
60851;SDS011;48553;50.766;2.900;2023-07-31T04:38:53;9.27;;;3.25;;
60851;SDS011;48553;50.766;2.900;2023-07-31T04:41:54;8.27;;;3.13;;
60851;SDS011;48553;50.766;2.900;2023-07-31T04:44:54;11.27;;;3.00;;
60851;SDS011;48553;50.766;2.900;2023-07-31T04:47:55;9.65;;;3.10;;
60851;SDS011;48553;50.766;2.900;2023-07-31T04:50:55;7.93;;;3.08;;
60851;SDS011;48553;50.766;2.900;2023-07-31T04:53:56;10.40;;;3.33;;
60851;SDS011;48553;50.766;2.900;2023-07-31T04:56:56;8.85;;;3.03;;
60851;SDS011;48553;50.766;2.900;2023-07-31T04:59:57;8.02;;;3.05;;
60851;SDS011;48553;50.766;2.900;2023-07-31T05:02:57;11.35;;;3.42;;
60851;SDS011;48553;50.766;2.900;2023-07-31T05:05:57;10.43;;;2.88;;
60851;SDS011;48553;50.766;2.900;2023-07-31T05:08:58;9.27;;;3.03;;
60851;SDS011;48553;50.766;2.900;2023-07-31T05:11:58;11.00;;;3.20;;
60851;SDS011;48553;50.766;2.900;2023-07-31T05:14:58;7.88;;;3.28;;
60851;SDS011;48553;50.766;2.900;2023-07-31T05:17:59;8.15;;;3.17;;
60851;SDS011;48553;50.766;2.900;2023-07-31T05:20:59;6.80;;;3.20;;
60851;SDS011;48553;50.766;2.900;2023-07-31T05:24:00;9.70;;;3.30;;
60851;SDS011;48553;50.766;2.900;2023-07-31T05:27:00;7.07;;;3.20;;
60851;SDS011;48553;50.766;2.900;2023-07-31T05:30:01;8.57;;;3.10;;
60851;SDS011;48553;50.766;2.900;2023-07-31T05:33:01;7.70;;;3.05;;
60851;SDS011;48553;50.766;2.900;2023-07-31T05:36:02;6.63;;;2.88;;
60851;SDS011;48553;50.766;2.900;2023-07-31T05:39:02;10.80;;;3.40;;
60851;SDS011;48553;50.766;2.900;2023-07-31T05:42:07;8.90;;;2.85;;
60851;SDS011;48553;50.766;2.900;2023-07-31T05:45:07;7.65;;;3.25;;
60851;SDS011;48553;50.766;2.900;2023-07-31T05:48:08;8.73;;;3.10;;
60851;SDS011;48553;50.766;2.900;2023-07-31T05:51:08;8.68;;;2.97;;
60851;SDS011;48553;50.766;2.900;2023-07-31T05:54:09;9.43;;;3.17;;
60851;SDS011;48553;50.766;2.900;2023-07-31T05:57:09;10.27;;;3.00;;
60851;SDS011;48553;50.766;2.900;2023-07-31T06:00:10;9.45;;;2.90;;
60851;SDS011;48553;50.766;2.900;2023-07-31T06:03:11;7.88;;;3.20;;
60851;SDS011;48553;50.766;2.900;2023-07-31T06:06:11;8.75;;;3.00;;
60851;SDS011;48553;50.766;2.900;2023-07-31T06:09:13;7.43;;;2.88;;
60851;SDS011;48553;50.766;2.900;2023-07-31T06:12:14;8.02;;;3.13;;
60851;SDS011;48553;50.766;2.900;2023-07-31T06:15:17;7.63;;;2.83;;
60851;SDS011;48553;50.766;2.900;2023-07-31T06:18:19;7.15;;;2.88;;
60851;SDS011;48553;50.766;2.900;2023-07-31T06:21:19;10.75;;;3.10;;
60851;SDS011;48553;50.766;2.900;2023-07-31T06:24:20;7.85;;;3.13;;
60851;SDS011;48553;50.766;2.900;2023-07-31T06:27:21;7.43;;;2.70;;
60851;SDS011;48553;50.766;2.900;2023-07-31T06:30:22;6.10;;;2.67;;
60851;SDS011;48553;50.766;2.900;2023-07-31T06:33:22;8.32;;;3.00;;
60851;SDS011;48553;50.766;2.900;2023-07-31T06:36:23;9.27;;;2.75;;
60851;SDS011;48553;50.766;2.900;2023-07-31T06:39:23;8.80;;;2.60;;
60851;SDS011;48553;50.766;2.900;2023-07-31T06:42:23;7.00;;;2.78;;
60851;SDS011;48553;50.766;2.900;2023-07-31T06:45:24;7.78;;;2.83;;
60851;SDS011;48553;50.766;2.900;2023-07-31T06:48:24;7.85;;;3.03;;
60851;SDS011;48553;50.766;2.900;2023-07-31T06:51:25;9.48;;;2.80;;
60851;SDS011;48553;50.766;2.900;2023-07-31T06:54:25;6.03;;;2.42;;
60851;SDS011;48553;50.766;2.900;2023-07-31T06:57:25;5.63;;;2.65;;
60851;SDS011;48553;50.766;2.900;2023-07-31T07:00:26;9.77;;;2.60;;
60851;SDS011;48553;50.766;2.900;2023-07-31T07:03:27;9.70;;;2.80;;
60851;SDS011;48553;50.766;2.900;2023-07-31T07:06:28;6.47;;;2.70;;
60851;SDS011;48553;50.766;2.900;2023-07-31T07:09:28;6.30;;;2.33;;
60851;SDS011;48553;50.766;2.900;2023-07-31T07:12:29;5.50;;;2.25;;
60851;SDS011;48553;50.766;2.900;2023-07-31T07:15:30;7.72;;;2.60;;
60851;SDS011;48553;50.766;2.900;2023-07-31T07:18:30;4.68;;;2.22;;
60851;SDS011;48553;50.766;2.900;2023-07-31T07:21:30;7.20;;;2.55;;
60851;SDS011;48553;50.766;2.900;2023-07-31T07:24:31;5.50;;;2.15;;
60851;SDS011;48553;50.766;2.900;2023-07-31T07:27:31;7.25;;;2.65;;
60851;SDS011;48553;50.766;2.900;2023-07-31T07:30:32;4.75;;;2.47;;
60851;SDS011;48553;50.766;2.900;2023-07-31T07:33:32;5.72;;;2.60;;
60851;SDS011;48553;50.766;2.900;2023-07-31T07:36:32;4.63;;;2.40;;
60851;SDS011;48553;50.766;2.900;2023-07-31T07:39:33;6.95;;;2.50;;
60851;SDS011;48553;50.766;2.900;2023-07-31T07:42:33;6.68;;;2.50;;
60851;SDS011;48553;50.766;2.900;2023-07-31T07:45:34;6.32;;;2.80;;
60851;SDS011;48553;50.766;2.900;2023-07-31T07:48:34;4.22;;;2.40;;
60851;SDS011;48553;50.766;2.900;2023-07-31T07:51:34;4.88;;;2.85;;
60851;SDS011;48553;50.766;2.900;2023-07-31T07:54:35;5.38;;;2.80;;
60851;SDS011;48553;50.766;2.900;2023-07-31T07:57:35;5.80;;;2.75;;
60851;SDS011;48553;50.766;2.900;2023-07-31T08:00:36;7.13;;;3.20;;
60851;SDS011;48553;50.766;2.900;2023-07-31T08:03:36;6.35;;;3.10;;
60851;SDS011;48553;50.766;2.900;2023-07-31T08:06:36;5.45;;;3.00;;
60851;SDS011;48553;50.766;2.900;2023-07-31T08:09:37;8.00;;;3.35;;
60851;SDS011;48553;50.766;2.900;2023-07-31T08:12:37;7.85;;;3.17;;
60851;SDS011;48553;50.766;2.900;2023-07-31T08:15:38;6.55;;;3.22;;
60851;SDS011;48553;50.766;2.900;2023-07-31T08:18:40;8.20;;;3.63;;
60851;SDS011;48553;50.766;2.900;2023-07-31T08:21:42;7.38;;;3.83;;
60851;SDS011;48553;50.766;2.900;2023-07-31T08:24:42;8.20;;;4.20;;
60851;SDS011;48553;50.766;2.900;2023-07-31T08:27:43;6.43;;;3.90;;
60851;SDS011;48553;50.766;2.900;2023-07-31T08:30:44;8.88;;;3.97;;
60851;SDS011;48553;50.766;2.900;2023-07-31T08:33:44;10.07;;;4.60;;
60851;SDS011;48553;50.766;2.900;2023-07-31T08:36:45;8.45;;;4.43;;
60851;SDS011;48553;50.766;2.900;2023-07-31T08:39:45;10.00;;;4.80;;
60851;SDS011;48553;50.766;2.900;2023-07-31T08:42:46;9.10;;;4.78;;
60851;SDS011;48553;50.766;2.900;2023-07-31T08:45:49;10.07;;;4.80;;
60851;SDS011;48553;50.766;2.900;2023-07-31T08:48:50;10.73;;;4.90;;
60851;SDS011;48553;50.766;2.900;2023-07-31T08:51:52;10.45;;;4.95;;
60851;SDS011;48553;50.766;2.900;2023-07-31T08:54:53;10.13;;;4.57;;
60851;SDS011;48553;50.766;2.900;2023-07-31T08:57:54;9.95;;;4.65;;
60851;SDS011;48553;50.766;2.900;2023-07-31T09:00:56;9.70;;;4.70;;
60851;SDS011;48553;50.766;2.900;2023-07-31T09:03:58;9.70;;;4.13;;
60851;SDS011;48553;50.766;2.900;2023-07-31T09:07:01;7.35;;;4.15;;
60851;SDS011;48553;50.766;2.900;2023-07-31T09:10:04;8.82;;;4.43;;
60851;SDS011;48553;50.766;2.900;2023-07-31T09:13:05;9.43;;;4.03;;
60851;SDS011;48553;50.766;2.900;2023-07-31T09:16:07;8.82;;;4.38;;
60851;SDS011;48553;50.766;2.900;2023-07-31T09:19:10;9.48;;;4.40;;
60851;SDS011;48553;50.766;2.900;2023-07-31T09:22:10;8.50;;;4.38;;
60851;SDS011;48553;50.766;2.900;2023-07-31T09:25:17;9.05;;;4.25;;
60851;SDS011;48553;50.766;2.900;2023-07-31T09:28:18;9.77;;;4.60;;
60851;SDS011;48553;50.766;2.900;2023-07-31T09:31:30;8.20;;;3.88;;
60851;SDS011;48553;50.766;2.900;2023-07-31T09:34:38;8.07;;;4.00;;
60851;SDS011;48553;50.766;2.900;2023-07-31T09:37:41;8.70;;;4.00;;
60851;SDS011;48553;50.766;2.900;2023-07-31T09:40:43;8.15;;;3.78;;
60851;SDS011;48553;50.766;2.900;2023-07-31T09:43:52;8.02;;;3.53;;
60851;SDS011;48553;50.766;2.900;2023-07-31T09:46:53;8.88;;;3.83;;
60851;SDS011;48553;50.766;2.900;2023-07-31T09:49:54;8.75;;;3.72;;
60851;SDS011;48553;50.766;2.900;2023-07-31T09:52:54;8.05;;;3.70;;
60851;SDS011;48553;50.766;2.900;2023-07-31T09:55:54;6.80;;;3.15;;
60851;SDS011;48553;50.766;2.900;2023-07-31T09:58:58;8.25;;;3.50;;
60851;SDS011;48553;50.766;2.900;2023-07-31T10:01:59;9.63;;;3.65;;
60851;SDS011;48553;50.766;2.900;2023-07-31T10:05:01;8.23;;;3.65;;
60851;SDS011;48553;50.766;2.900;2023-07-31T10:08:03;7.50;;;3.50;;
60851;SDS011;48553;50.766;2.900;2023-07-31T10:11:04;9.38;;;3.72;;
60851;SDS011;48553;50.766;2.900;2023-07-31T10:14:06;8.02;;;3.78;;
60851;SDS011;48553;50.766;2.900;2023-07-31T10:17:07;6.43;;;3.28;;
60851;SDS011;48553;50.766;2.900;2023-07-31T10:20:09;10.63;;;3.60;;
60851;SDS011;48553;50.766;2.900;2023-07-31T10:23:10;8.18;;;3.60;;
60851;SDS011;48553;50.766;2.900;2023-07-31T10:26:11;7.82;;;3.38;;
60851;SDS011;48553;50.766;2.900;2023-07-31T10:29:13;6.47;;;3.65;;
60851;SDS011;48553;50.766;2.900;2023-07-31T10:32:16;7.50;;;3.70;;
60851;SDS011;48553;50.766;2.900;2023-07-31T10:35:17;9.60;;;3.95;;
60851;SDS011;48553;50.766;2.900;2023-07-31T10:38:18;8.38;;;3.70;;
60851;SDS011;48553;50.766;2.900;2023-07-31T10:41:18;8.43;;;3.70;;
60851;SDS011;48553;50.766;2.900;2023-07-31T10:44:18;6.50;;;3.30;;
60851;SDS011;48553;50.766;2.900;2023-07-31T10:47:19;7.63;;;3.60;;
60851;SDS011;48553;50.766;2.900;2023-07-31T10:50:20;6.80;;;3.35;;
60851;SDS011;48553;50.766;2.900;2023-07-31T10:53:30;8.53;;;3.73;;
60851;SDS011;48553;50.766;2.900;2023-07-31T10:56:36;7.50;;;3.67;;
60851;SDS011;48553;50.766;2.900;2023-07-31T10:59:38;7.13;;;3.33;;
60851;SDS011;48553;50.766;2.900;2023-07-31T11:02:38;8.73;;;3.45;;
60851;SDS011;48553;50.766;2.900;2023-07-31T11:05:42;6.55;;;3.65;;
60851;SDS011;48553;50.766;2.900;2023-07-31T11:08:50;8.05;;;3.53;;
60851;SDS011;48553;50.766;2.900;2023-07-31T11:11:51;6.28;;;3.22;;
60851;SDS011;48553;50.766;2.900;2023-07-31T11:14:55;7.72;;;3.40;;
60851;SDS011;48553;50.766;2.900;2023-07-31T11:17:56;7.22;;;3.60;;
60851;SDS011;48553;50.766;2.900;2023-07-31T11:21:00;6.38;;;3.40;;
60851;SDS011;48553;50.766;2.900;2023-07-31T11:24:00;7.18;;;3.20;;
60851;SDS011;48553;50.766;2.900;2023-07-31T11:27:07;8.27;;;3.25;;
60851;SDS011;48553;50.766;2.900;2023-07-31T11:30:08;6.93;;;3.53;;
60851;SDS011;48553;50.766;2.900;2023-07-31T11:33:09;5.28;;;2.85;;
60851;SDS011;48553;50.766;2.900;2023-07-31T11:36:14;5.00;;;3.15;;
60851;SDS011;48553;50.766;2.900;2023-07-31T11:39:16;5.90;;;2.80;;
60851;SDS011;48553;50.766;2.900;2023-07-31T11:42:16;6.43;;;2.88;;
60851;SDS011;48553;50.766;2.900;2023-07-31T11:45:17;5.05;;;2.40;;
60851;SDS011;48553;50.766;2.900;2023-07-31T11:48:21;6.00;;;2.65;;
60851;SDS011;48553;50.766;2.900;2023-07-31T11:51:29;5.55;;;2.78;;
60851;SDS011;48553;50.766;2.900;2023-07-31T11:54:29;8.27;;;2.92;;
60851;SDS011;48553;50.766;2.900;2023-07-31T11:57:30;6.60;;;2.70;;
60851;SDS011;48553;50.766;2.900;2023-07-31T12:00:30;5.47;;;3.17;;
60851;SDS011;48553;50.766;2.900;2023-07-31T12:03:32;5.53;;;3.13;;
60851;SDS011;48553;50.766;2.900;2023-07-31T12:06:33;5.45;;;2.92;;
60851;SDS011;48553;50.766;2.900;2023-07-31T12:09:34;6.55;;;3.42;;
60851;SDS011;48553;50.766;2.900;2023-07-31T12:12:35;6.65;;;3.20;;
60851;SDS011;48553;50.766;2.900;2023-07-31T12:15:44;5.32;;;3.00;;
60851;SDS011;48553;50.766;2.900;2023-07-31T12:18:45;5.50;;;3.00;;
60851;SDS011;48553;50.766;2.900;2023-07-31T12:21:49;6.07;;;2.60;;
60851;SDS011;48553;50.766;2.900;2023-07-31T12:24:50;5.03;;;2.72;;
60851;SDS011;48553;50.766;2.900;2023-07-31T12:27:54;5.88;;;2.60;;
60851;SDS011;48553;50.766;2.900;2023-07-31T12:30:58;5.72;;;2.78;;
60851;SDS011;48553;50.766;2.900;2023-07-31T12:34:00;5.68;;;2.85;;
60851;SDS011;48553;50.766;2.900;2023-07-31T12:37:02;6.32;;;2.60;;
60851;SDS011;48553;50.766;2.900;2023-07-31T12:40:03;5.18;;;2.75;;
60851;SDS011;48553;50.766;2.900;2023-07-31T12:43:04;4.28;;;2.30;;
60851;SDS011;48553;50.766;2.900;2023-07-31T12:46:05;6.70;;;2.22;;
60851;SDS011;48553;50.766;2.900;2023-07-31T12:49:08;5.20;;;2.33;;
60851;SDS011;48553;50.766;2.900;2023-07-31T12:52:08;4.03;;;2.10;;
60851;SDS011;48553;50.766;2.900;2023-07-31T12:55:08;4.47;;;1.98;;
60851;SDS011;48553;50.766;2.900;2023-07-31T12:58:10;4.50;;;1.92;;
60851;SDS011;48553;50.766;2.900;2023-07-31T13:01:11;5.22;;;1.73;;
60851;SDS011;48553;50.766;2.900;2023-07-31T13:04:11;2.90;;;1.80;;
60851;SDS011;48553;50.766;2.900;2023-07-31T13:07:12;4.07;;;2.00;;
60851;SDS011;48553;50.766;2.900;2023-07-31T13:10:12;4.30;;;1.90;;
60851;SDS011;48553;50.766;2.900;2023-07-31T13:13:13;3.90;;;1.80;;
60851;SDS011;48553;50.766;2.900;2023-07-31T13:16:13;4.18;;;1.60;;
60851;SDS011;48553;50.766;2.900;2023-07-31T13:19:13;3.15;;;1.30;;
60851;SDS011;48553;50.766;2.900;2023-07-31T13:22:14;2.70;;;0.93;;
60851;SDS011;48553;50.766;2.900;2023-07-31T13:25:14;3.28;;;1.10;;
60851;SDS011;48553;50.766;2.900;2023-07-31T13:28:15;1.77;;;0.80;;
60851;SDS011;48553;50.766;2.900;2023-07-31T13:31:15;2.63;;;0.98;;
60851;SDS011;48553;50.766;2.900;2023-07-31T13:34:15;6.22;;;1.02;;
60851;SDS011;48553;50.766;2.900;2023-07-31T13:37:16;1.92;;;0.80;;
60851;SDS011;48553;50.766;2.900;2023-07-31T13:40:16;2.42;;;0.77;;
60851;SDS011;48553;50.766;2.900;2023-07-31T13:43:17;1.83;;;0.70;;
60851;SDS011;48553;50.766;2.900;2023-07-31T13:46:17;1.60;;;0.50;;
60851;SDS011;48553;50.766;2.900;2023-07-31T13:49:17;1.27;;;0.60;;
60851;SDS011;48553;50.766;2.900;2023-07-31T13:52:18;0.88;;;0.50;;
60851;SDS011;48553;50.766;2.900;2023-07-31T13:55:18;1.17;;;0.47;;
60851;SDS011;48553;50.766;2.900;2023-07-31T13:58:18;1.05;;;0.40;;
60851;SDS011;48553;50.766;2.900;2023-07-31T14:01:20;1.80;;;0.45;;
60851;SDS011;48553;50.766;2.900;2023-07-31T14:04:20;2.00;;;0.60;;
60851;SDS011;48553;50.766;2.900;2023-07-31T14:07:21;2.85;;;0.60;;
60851;SDS011;48553;50.766;2.900;2023-07-31T14:10:21;1.15;;;0.50;;
60851;SDS011;48553;50.766;2.900;2023-07-31T14:13:22;1.88;;;0.55;;
60851;SDS011;48553;50.766;2.900;2023-07-31T14:16:22;1.17;;;0.40;;
60851;SDS011;48553;50.766;2.900;2023-07-31T14:19:23;1.48;;;0.40;;
60851;SDS011;48553;50.766;2.900;2023-07-31T14:22:31;0.82;;;0.45;;
60851;SDS011;48553;50.766;2.900;2023-07-31T14:25:33;0.70;;;0.40;;
60851;SDS011;48553;50.766;2.900;2023-07-31T14:28:33;0.98;;;0.40;;
60851;SDS011;48553;50.766;2.900;2023-07-31T14:31:34;0.60;;;0.40;;
60851;SDS011;48553;50.766;2.900;2023-07-31T14:34:34;1.02;;;0.43;;
60851;SDS011;48553;50.766;2.900;2023-07-31T14:37:41;1.02;;;0.50;;
60851;SDS011;48553;50.766;2.900;2023-07-31T14:40:43;1.08;;;0.45;;
60851;SDS011;48553;50.766;2.900;2023-07-31T14:43:43;0.80;;;0.50;;
60851;SDS011;48553;50.766;2.900;2023-07-31T14:46:44;1.85;;;0.40;;
60851;SDS011;48553;50.766;2.900;2023-07-31T14:49:44;0.93;;;0.40;;
60851;SDS011;48553;50.766;2.900;2023-07-31T14:52:44;2.10;;;0.60;;
60851;SDS011;48553;50.766;2.900;2023-07-31T14:55:45;1.63;;;0.65;;
60851;SDS011;48553;50.766;2.900;2023-07-31T14:58:45;1.88;;;0.52;;
60851;SDS011;48553;50.766;2.900;2023-07-31T15:01:46;2.13;;;0.63;;
60851;SDS011;48553;50.766;2.900;2023-07-31T15:04:46;1.83;;;0.57;;
60851;SDS011;48553;50.766;2.900;2023-07-31T15:07:46;1.33;;;0.38;;
60851;SDS011;48553;50.766;2.900;2023-07-31T15:10:47;1.27;;;0.50;;
60851;SDS011;48553;50.766;2.900;2023-07-31T15:13:47;0.95;;;0.43;;
60851;SDS011;48553;50.766;2.900;2023-07-31T15:16:47;1.20;;;0.40;;
60851;SDS011;48553;50.766;2.900;2023-07-31T15:19:48;1.00;;;0.40;;
60851;SDS011;48553;50.766;2.900;2023-07-31T15:22:48;1.27;;;0.57;;
60851;SDS011;48553;50.766;2.900;2023-07-31T15:25:49;1.25;;;0.55;;
60851;SDS011;48553;50.766;2.900;2023-07-31T15:28:50;1.00;;;0.50;;
60851;SDS011;48553;50.766;2.900;2023-07-31T15:31:56;1.23;;;0.40;;
60851;SDS011;48553;50.766;2.900;2023-07-31T15:34:56;2.97;;;0.50;;
60851;SDS011;48553;50.766;2.900;2023-07-31T15:37:57;1.27;;;0.45;;
60851;SDS011;48553;50.766;2.900;2023-07-31T15:40:57;2.40;;;0.60;;
60851;SDS011;48553;50.766;2.900;2023-07-31T15:43:58;1.17;;;0.50;;
60851;SDS011;48553;50.766;2.900;2023-07-31T15:46:58;2.00;;;0.52;;
60851;SDS011;48553;50.766;2.900;2023-07-31T15:49:58;1.27;;;0.60;;
60851;SDS011;48553;50.766;2.900;2023-07-31T15:52:59;1.30;;;0.65;;
60851;SDS011;48553;50.766;2.900;2023-07-31T15:55:59;2.10;;;0.77;;
60851;SDS011;48553;50.766;2.900;2023-07-31T15:58:59;2.85;;;0.70;;
60851;SDS011;48553;50.766;2.900;2023-07-31T16:02:01;3.03;;;0.90;;
60851;SDS011;48553;50.766;2.900;2023-07-31T16:05:02;2.17;;;0.90;;
60851;SDS011;48553;50.766;2.900;2023-07-31T16:08:02;3.22;;;0.90;;
60851;SDS011;48553;50.766;2.900;2023-07-31T16:11:03;3.40;;;1.08;;
60851;SDS011;48553;50.766;2.900;2023-07-31T16:14:06;2.58;;;0.93;;
60851;SDS011;48553;50.766;2.900;2023-07-31T16:17:07;1.77;;;0.85;;
60851;SDS011;48553;50.766;2.900;2023-07-31T16:20:07;4.07;;;0.95;;
60851;SDS011;48553;50.766;2.900;2023-07-31T16:23:08;1.98;;;0.75;;
60851;SDS011;48553;50.766;2.900;2023-07-31T16:26:08;2.53;;;0.90;;
60851;SDS011;48553;50.766;2.900;2023-07-31T16:29:09;2.25;;;0.80;;
60851;SDS011;48553;50.766;2.900;2023-07-31T16:32:09;1.40;;;0.70;;
60851;SDS011;48553;50.766;2.900;2023-07-31T16:35:09;2.60;;;0.70;;
60851;SDS011;48553;50.766;2.900;2023-07-31T16:38:10;2.42;;;0.70;;
60851;SDS011;48553;50.766;2.900;2023-07-31T16:41:10;3.55;;;0.68;;
60851;SDS011;48553;50.766;2.900;2023-07-31T16:44:11;2.03;;;0.60;;
60851;SDS011;48553;50.766;2.900;2023-07-31T16:47:12;2.83;;;0.50;;
60851;SDS011;48553;50.766;2.900;2023-07-31T16:50:13;3.30;;;0.60;;
60851;SDS011;48553;50.766;2.900;2023-07-31T16:53:13;1.63;;;0.50;;
60851;SDS011;48553;50.766;2.900;2023-07-31T16:56:14;4.45;;;0.55;;
60851;SDS011;48553;50.766;2.900;2023-07-31T16:59:16;3.15;;;0.57;;
60851;SDS011;48553;50.766;2.900;2023-07-31T17:02:17;1.30;;;0.40;;
60851;SDS011;48553;50.766;2.900;2023-07-31T17:05:17;1.50;;;0.25;;
60851;SDS011;48553;50.766;2.900;2023-07-31T17:08:18;2.15;;;0.30;;
60851;SDS011;48553;50.766;2.900;2023-07-31T17:11:18;4.45;;;0.50;;
60851;SDS011;48553;50.766;2.900;2023-07-31T17:14:18;2.55;;;0.60;;
60851;SDS011;48553;50.766;2.900;2023-07-31T17:17:19;4.10;;;0.70;;
60851;SDS011;48553;50.766;2.900;2023-07-31T17:20:23;1.95;;;0.60;;
60851;SDS011;48553;50.766;2.900;2023-07-31T17:23:23;2.80;;;0.65;;
60851;SDS011;48553;50.766;2.900;2023-07-31T17:26:24;2.45;;;0.50;;
60851;SDS011;48553;50.766;2.900;2023-07-31T17:29:28;2.95;;;0.60;;
60851;SDS011;48553;50.766;2.900;2023-07-31T17:32:29;1.70;;;0.75;;
60851;SDS011;48553;50.766;2.900;2023-07-31T17:35:30;2.53;;;0.73;;
60851;SDS011;48553;50.766;2.900;2023-07-31T17:38:31;2.22;;;0.70;;
60851;SDS011;48553;50.766;2.900;2023-07-31T17:41:33;3.35;;;0.80;;
60851;SDS011;48553;50.766;2.900;2023-07-31T17:44:34;2.10;;;0.88;;
60851;SDS011;48553;50.766;2.900;2023-07-31T17:47:34;3.25;;;0.60;;
60851;SDS011;48553;50.766;2.900;2023-07-31T17:50:35;2.40;;;0.90;;
60851;SDS011;48553;50.766;2.900;2023-07-31T17:53:35;2.83;;;0.80;;
60851;SDS011;48553;50.766;2.900;2023-07-31T17:56:36;2.60;;;0.73;;
60851;SDS011;48553;50.766;2.900;2023-07-31T17:59:37;3.58;;;1.00;;
60851;SDS011;48553;50.766;2.900;2023-07-31T18:02:38;1.92;;;0.90;;
60851;SDS011;48553;50.766;2.900;2023-07-31T18:05:38;2.53;;;1.00;;
60851;SDS011;48553;50.766;2.900;2023-07-31T18:08:39;4.32;;;1.15;;
60851;SDS011;48553;50.766;2.900;2023-07-31T18:11:39;2.42;;;0.90;;